sensor_id;sensor_type;location;lat;lon;timestamp;P1;durP1;ratioP1;P2;durP2;ratioP2
45848;SDS011;31567;54.600;9.842;2022-11-14T00:00:45;11.45;;;9.15;;
45848;SDS011;31567;54.600;9.842;2022-11-14T00:04:24;10.27;;;8.60;;
45848;SDS011;31567;54.600;9.842;2022-11-14T00:08:04;11.57;;;9.15;;
45848;SDS011;31567;54.600;9.842;2022-11-14T00:11:44;10.82;;;9.52;;
45848;SDS011;31567;54.600;9.842;2022-11-14T00:15:23;12.32;;;9.90;;
45848;SDS011;31567;54.600;9.842;2022-11-14T00:19:03;11.00;;;9.90;;
45848;SDS011;31567;54.600;9.842;2022-11-14T00:22:42;12.43;;;9.48;;
45848;SDS011;31567;54.600;9.842;2022-11-14T00:26:22;10.27;;;9.02;;
45848;SDS011;31567;54.600;9.842;2022-11-14T00:30:01;11.05;;;8.65;;
45848;SDS011;31567;54.600;9.842;2022-11-14T00:33:41;9.30;;;8.07;;
45848;SDS011;31567;54.600;9.842;2022-11-14T00:37:21;10.20;;;9.18;;
45848;SDS011;31567;54.600;9.842;2022-11-14T00:41:00;10.30;;;9.20;;
45848;SDS011;31567;54.600;9.842;2022-11-14T00:44:40;10.50;;;9.23;;
45848;SDS011;31567;54.600;9.842;2022-11-14T00:48:19;11.27;;;10.07;;
45848;SDS011;31567;54.600;9.842;2022-11-14T00:51:59;12.45;;;11.15;;
45848;SDS011;31567;54.600;9.842;2022-11-14T00:55:38;12.73;;;11.32;;
45848;SDS011;31567;54.600;9.842;2022-11-14T00:59:19;14.07;;;12.57;;
45848;SDS011;31567;54.600;9.842;2022-11-14T01:02:58;16.65;;;12.70;;
45848;SDS011;31567;54.600;9.842;2022-11-14T01:06:38;14.38;;;12.82;;
45848;SDS011;31567;54.600;9.842;2022-11-14T01:10:18;15.80;;;13.88;;
45848;SDS011;31567;54.600;9.842;2022-11-14T01:13:58;16.17;;;14.55;;
45848;SDS011;31567;54.600;9.842;2022-11-14T01:17:38;16.80;;;14.95;;
45848;SDS011;31567;54.600;9.842;2022-11-14T01:21:17;18.83;;;16.15;;
45848;SDS011;31567;54.600;9.842;2022-11-14T01:24:57;18.88;;;16.48;;
45848;SDS011;31567;54.600;9.842;2022-11-14T01:28:37;18.40;;;16.60;;
45848;SDS011;31567;54.600;9.842;2022-11-14T01:32:18;20.00;;;17.15;;
45848;SDS011;31567;54.600;9.842;2022-11-14T01:36:00;19.00;;;16.58;;
45848;SDS011;31567;54.600;9.842;2022-11-14T01:39:41;18.60;;;16.30;;
45848;SDS011;31567;54.600;9.842;2022-11-14T01:47:04;20.27;;;18.17;;
45848;SDS011;31567;54.600;9.842;2022-11-14T01:50:44;20.45;;;17.30;;
45848;SDS011;31567;54.600;9.842;2022-11-14T01:54:27;21.70;;;18.88;;
45848;SDS011;31567;54.600;9.842;2022-11-14T01:58:10;20.98;;;18.02;;
45848;SDS011;31567;54.600;9.842;2022-11-14T02:01:51;22.95;;;19.05;;
45848;SDS011;31567;54.600;9.842;2022-11-14T02:05:32;22.35;;;19.98;;
45848;SDS011;31567;54.600;9.842;2022-11-14T02:09:13;22.70;;;19.05;;
45848;SDS011;31567;54.600;9.842;2022-11-14T02:12:53;26.27;;;21.08;;
45848;SDS011;31567;54.600;9.842;2022-11-14T02:16:33;24.27;;;20.38;;
45848;SDS011;31567;54.600;9.842;2022-11-14T02:20:14;24.48;;;21.83;;
45848;SDS011;31567;54.600;9.842;2022-11-14T02:24:09;27.77;;;21.45;;
45848;SDS011;31567;54.600;9.842;2022-11-14T02:27:50;24.95;;;21.20;;
45848;SDS011;31567;54.600;9.842;2022-11-14T02:31:29;27.30;;;21.55;;
45848;SDS011;31567;54.600;9.842;2022-11-14T02:35:09;27.15;;;21.60;;
45848;SDS011;31567;54.600;9.842;2022-11-14T02:38:49;26.60;;;19.83;;
45848;SDS011;31567;54.600;9.842;2022-11-14T02:42:28;28.67;;;21.20;;
45848;SDS011;31567;54.600;9.842;2022-11-14T02:46:08;30.33;;;22.05;;
45848;SDS011;31567;54.600;9.842;2022-11-14T02:49:48;29.58;;;21.90;;
45848;SDS011;31567;54.600;9.842;2022-11-14T02:53:27;29.40;;;21.95;;
45848;SDS011;31567;54.600;9.842;2022-11-14T02:57:07;29.55;;;22.98;;
45848;SDS011;31567;54.600;9.842;2022-11-14T03:00:47;29.77;;;21.20;;
45848;SDS011;31567;54.600;9.842;2022-11-14T03:04:26;30.40;;;21.77;;
45848;SDS011;31567;54.600;9.842;2022-11-14T03:08:06;29.25;;;22.67;;
45848;SDS011;31567;54.600;9.842;2022-11-14T03:11:45;28.77;;;22.17;;
45848;SDS011;31567;54.600;9.842;2022-11-14T03:15:25;31.48;;;22.70;;
45848;SDS011;31567;54.600;9.842;2022-11-14T03:19:05;32.00;;;23.20;;
45848;SDS011;31567;54.600;9.842;2022-11-14T03:22:44;29.77;;;22.63;;
45848;SDS011;31567;54.600;9.842;2022-11-14T03:26:24;29.20;;;22.23;;
45848;SDS011;31567;54.600;9.842;2022-11-14T03:30:03;30.13;;;21.73;;
45848;SDS011;31567;54.600;9.842;2022-11-14T03:33:43;28.42;;;22.90;;
45848;SDS011;31567;54.600;9.842;2022-11-14T03:37:23;30.42;;;21.13;;
45848;SDS011;31567;54.600;9.842;2022-11-14T03:41:02;29.67;;;22.77;;
45848;SDS011;31567;54.600;9.842;2022-11-14T03:44:42;28.27;;;21.85;;
45848;SDS011;31567;54.600;9.842;2022-11-14T03:48:21;27.25;;;22.20;;
45848;SDS011;31567;54.600;9.842;2022-11-14T03:52:01;27.67;;;21.13;;
45848;SDS011;31567;54.600;9.842;2022-11-14T03:55:42;29.80;;;22.95;;
45848;SDS011;31567;54.600;9.842;2022-11-14T03:59:22;26.17;;;19.63;;
45848;SDS011;31567;54.600;9.842;2022-11-14T04:03:01;26.40;;;19.20;;
45848;SDS011;31567;54.600;9.842;2022-11-14T04:06:41;27.58;;;21.15;;
45848;SDS011;31567;54.600;9.842;2022-11-14T04:10:20;27.20;;;21.08;;
45848;SDS011;31567;54.600;9.842;2022-11-14T04:14:00;30.42;;;22.27;;
45848;SDS011;31567;54.600;9.842;2022-11-14T04:17:39;30.85;;;21.33;;
45848;SDS011;31567;54.600;9.842;2022-11-14T04:21:19;27.05;;;21.58;;
45848;SDS011;31567;54.600;9.842;2022-11-14T04:24:59;27.30;;;21.05;;
45848;SDS011;31567;54.600;9.842;2022-11-14T04:28:38;28.05;;;21.27;;
45848;SDS011;31567;54.600;9.842;2022-11-14T04:32:18;30.40;;;23.88;;
45848;SDS011;31567;54.600;9.842;2022-11-14T04:35:57;29.88;;;22.33;;
45848;SDS011;31567;54.600;9.842;2022-11-14T04:39:37;29.67;;;22.75;;
45848;SDS011;31567;54.600;9.842;2022-11-14T04:43:17;33.40;;;23.50;;
45848;SDS011;31567;54.600;9.842;2022-11-14T04:46:57;31.95;;;23.98;;
45848;SDS011;31567;54.600;9.842;2022-11-14T04:50:36;30.00;;;21.92;;
45848;SDS011;31567;54.600;9.842;2022-11-14T04:54:16;31.42;;;22.70;;
45848;SDS011;31567;54.600;9.842;2022-11-14T04:57:56;31.40;;;23.75;;
45848;SDS011;31567;54.600;9.842;2022-11-14T05:01:36;34.00;;;24.60;;
45848;SDS011;31567;54.600;9.842;2022-11-14T05:05:16;28.92;;;23.05;;
45848;SDS011;31567;54.600;9.842;2022-11-14T05:08:55;33.03;;;24.52;;
45848;SDS011;31567;54.600;9.842;2022-11-14T05:12:35;34.20;;;23.58;;
45848;SDS011;31567;54.600;9.842;2022-11-14T05:16:14;32.80;;;23.40;;
45848;SDS011;31567;54.600;9.842;2022-11-14T05:19:54;27.77;;;22.33;;
45848;SDS011;31567;54.600;9.842;2022-11-14T05:23:33;32.38;;;22.50;;
45848;SDS011;31567;54.600;9.842;2022-11-14T05:27:13;27.38;;;21.55;;
45848;SDS011;31567;54.600;9.842;2022-11-14T05:30:59;31.42;;;23.83;;
45848;SDS011;31567;54.600;9.842;2022-11-14T05:34:39;29.25;;;21.25;;
45848;SDS011;31567;54.600;9.842;2022-11-14T05:38:19;29.70;;;23.00;;
45848;SDS011;31567;54.600;9.842;2022-11-14T05:41:59;31.67;;;22.17;;
45848;SDS011;31567;54.600;9.842;2022-11-14T05:45:38;30.92;;;23.08;;
45848;SDS011;31567;54.600;9.842;2022-11-14T05:49:18;27.80;;;22.25;;
45848;SDS011;31567;54.600;9.842;2022-11-14T05:52:57;29.35;;;22.05;;
45848;SDS011;31567;54.600;9.842;2022-11-14T05:56:37;28.58;;;21.67;;
45848;SDS011;31567;54.600;9.842;2022-11-14T06:00:16;27.23;;;21.73;;
45848;SDS011;31567;54.600;9.842;2022-11-14T06:03:56;29.40;;;20.92;;
45848;SDS011;31567;54.600;9.842;2022-11-14T06:07:35;28.38;;;22.20;;
45848;SDS011;31567;54.600;9.842;2022-11-14T06:11:17;29.17;;;22.85;;
45848;SDS011;31567;54.600;9.842;2022-11-14T06:14:58;26.52;;;21.00;;
45848;SDS011;31567;54.600;9.842;2022-11-14T06:18:37;29.33;;;21.90;;
45848;SDS011;31567;54.600;9.842;2022-11-14T06:22:17;26.52;;;21.83;;
45848;SDS011;31567;54.600;9.842;2022-11-14T06:26:00;30.45;;;22.75;;
45848;SDS011;31567;54.600;9.842;2022-11-14T06:29:41;30.55;;;23.10;;
45848;SDS011;31567;54.600;9.842;2022-11-14T06:33:21;28.13;;;21.77;;
45848;SDS011;31567;54.600;9.842;2022-11-14T06:37:00;28.83;;;22.63;;
45848;SDS011;31567;54.600;9.842;2022-11-14T06:40:40;29.35;;;21.80;;
45848;SDS011;31567;54.600;9.842;2022-11-14T06:44:19;29.02;;;21.48;;
45848;SDS011;31567;54.600;9.842;2022-11-14T06:47:59;29.85;;;22.77;;
45848;SDS011;31567;54.600;9.842;2022-11-14T06:51:38;27.52;;;21.90;;
45848;SDS011;31567;54.600;9.842;2022-11-14T06:55:18;28.77;;;21.40;;
45848;SDS011;31567;54.600;9.842;2022-11-14T06:58:58;28.13;;;21.20;;
45848;SDS011;31567;54.600;9.842;2022-11-14T07:02:37;27.10;;;20.67;;
45848;SDS011;31567;54.600;9.842;2022-11-14T07:06:21;27.50;;;21.20;;
45848;SDS011;31567;54.600;9.842;2022-11-14T07:10:02;26.63;;;20.95;;
45848;SDS011;31567;54.600;9.842;2022-11-14T07:13:42;26.33;;;20.65;;
45848;SDS011;31567;54.600;9.842;2022-11-14T07:17:22;27.63;;;21.13;;
45848;SDS011;31567;54.600;9.842;2022-11-14T07:21:02;25.80;;;20.80;;
45848;SDS011;31567;54.600;9.842;2022-11-14T07:24:43;27.50;;;21.13;;
45848;SDS011;31567;54.600;9.842;2022-11-14T07:28:23;25.95;;;20.67;;
45848;SDS011;31567;54.600;9.842;2022-11-14T07:32:02;29.27;;;21.50;;
45848;SDS011;31567;54.600;9.842;2022-11-14T07:35:42;27.40;;;20.65;;
45848;SDS011;31567;54.600;9.842;2022-11-14T07:39:22;27.30;;;21.90;;
45848;SDS011;31567;54.600;9.842;2022-11-14T07:43:01;31.27;;;21.70;;
45848;SDS011;31567;54.600;9.842;2022-11-14T07:46:41;30.50;;;22.35;;
45848;SDS011;31567;54.600;9.842;2022-11-14T07:50:21;31.08;;;21.95;;
45848;SDS011;31567;54.600;9.842;2022-11-14T07:54:01;28.95;;;22.52;;
45848;SDS011;31567;54.600;9.842;2022-11-14T07:57:41;31.15;;;22.55;;
45848;SDS011;31567;54.600;9.842;2022-11-14T08:01:20;30.70;;;23.05;;
45848;SDS011;31567;54.600;9.842;2022-11-14T08:05:00;30.05;;;21.90;;
45848;SDS011;31567;54.600;9.842;2022-11-14T08:08:39;28.33;;;21.60;;
45848;SDS011;31567;54.600;9.842;2022-11-14T08:12:19;33.05;;;22.40;;
45848;SDS011;31567;54.600;9.842;2022-11-14T08:16:03;30.77;;;22.92;;
45848;SDS011;31567;54.600;9.842;2022-11-14T08:19:43;32.38;;;23.58;;
45848;SDS011;31567;54.600;9.842;2022-11-14T08:23:23;30.80;;;22.83;;
45848;SDS011;31567;54.600;9.842;2022-11-14T08:27:02;32.53;;;22.73;;
45848;SDS011;31567;54.600;9.842;2022-11-14T08:30:42;32.80;;;22.85;;
45848;SDS011;31567;54.600;9.842;2022-11-14T08:34:22;31.38;;;24.08;;
45848;SDS011;31567;54.600;9.842;2022-11-14T08:38:02;35.60;;;24.85;;
45848;SDS011;31567;54.600;9.842;2022-11-14T08:41:42;31.60;;;23.60;;
45848;SDS011;31567;54.600;9.842;2022-11-14T08:45:21;36.33;;;24.10;;
45848;SDS011;31567;54.600;9.842;2022-11-14T08:49:01;31.65;;;22.92;;
45848;SDS011;31567;54.600;9.842;2022-11-14T08:52:40;33.83;;;23.92;;
45848;SDS011;31567;54.600;9.842;2022-11-14T08:56:20;34.17;;;23.92;;
45848;SDS011;31567;54.600;9.842;2022-11-14T09:00:00;34.25;;;24.23;;
45848;SDS011;31567;54.600;9.842;2022-11-14T09:03:39;34.83;;;24.13;;
45848;SDS011;31567;54.600;9.842;2022-11-14T09:07:19;32.67;;;24.55;;
45848;SDS011;31567;54.600;9.842;2022-11-14T09:10:59;34.92;;;23.95;;
45848;SDS011;31567;54.600;9.842;2022-11-14T09:14:39;32.00;;;22.23;;
45848;SDS011;31567;54.600;9.842;2022-11-14T09:18:19;33.35;;;23.63;;
45848;SDS011;31567;54.600;9.842;2022-11-14T09:21:58;33.40;;;23.77;;
45848;SDS011;31567;54.600;9.842;2022-11-14T09:25:38;35.67;;;24.83;;
45848;SDS011;31567;54.600;9.842;2022-11-14T09:29:17;39.70;;;24.85;;
45848;SDS011;31567;54.600;9.842;2022-11-14T09:32:58;37.78;;;25.08;;
45848;SDS011;31567;54.600;9.842;2022-11-14T09:36:39;35.45;;;24.13;;
45848;SDS011;31567;54.600;9.842;2022-11-14T09:40:18;36.28;;;25.98;;
45848;SDS011;31567;54.600;9.842;2022-11-14T09:47:50;37.50;;;25.50;;
45848;SDS011;31567;54.600;9.842;2022-11-14T09:51:35;37.30;;;25.80;;
45848;SDS011;31567;54.600;9.842;2022-11-14T09:55:26;39.53;;;26.05;;
45848;SDS011;31567;54.600;9.842;2022-11-14T09:59:09;39.40;;;26.70;;
45848;SDS011;31567;54.600;9.842;2022-11-14T10:06:52;40.63;;;27.45;;
45848;SDS011;31567;54.600;9.842;2022-11-14T10:10:57;41.03;;;26.90;;
45848;SDS011;31567;54.600;9.842;2022-11-14T10:27:19;42.90;;;25.17;;
45848;SDS011;31567;54.600;9.842;2022-11-14T10:31:07;44.22;;;28.67;;
45848;SDS011;31567;54.600;9.842;2022-11-14T10:35:22;43.17;;;27.40;;
45848;SDS011;31567;54.600;9.842;2022-11-14T10:43:41;47.38;;;28.48;;
45848;SDS011;31567;54.600;9.842;2022-11-14T10:47:04;47.47;;;28.27;;
45848;SDS011;31567;54.600;9.842;2022-11-14T10:50:51;44.25;;;28.67;;
45848;SDS011;31567;54.600;9.842;2022-11-14T10:54:38;50.15;;;31.98;;
45848;SDS011;31567;54.600;9.842;2022-11-14T11:02:02;49.25;;;29.00;;
45848;SDS011;31567;54.600;9.842;2022-11-14T11:05:46;49.95;;;29.98;;
45848;SDS011;31567;54.600;9.842;2022-11-14T11:09:29;53.67;;;32.58;;
45848;SDS011;31567;54.600;9.842;2022-11-14T11:13:32;53.50;;;31.20;;
45848;SDS011;31567;54.600;9.842;2022-11-14T11:17:21;52.53;;;32.53;;
45848;SDS011;31567;54.600;9.842;2022-11-14T11:24:49;42.30;;;26.75;;
45848;SDS011;31567;54.600;9.842;2022-11-14T11:28:28;39.05;;;24.65;;
45848;SDS011;31567;54.600;9.842;2022-11-14T11:32:08;44.60;;;27.02;;
45848;SDS011;31567;54.600;9.842;2022-11-14T11:35:48;40.53;;;26.65;;
45848;SDS011;31567;54.600;9.842;2022-11-14T11:39:32;41.20;;;27.10;;
45848;SDS011;31567;54.600;9.842;2022-11-14T11:43:28;42.72;;;26.92;;
45848;SDS011;31567;54.600;9.842;2022-11-14T11:47:23;42.70;;;28.15;;
45848;SDS011;31567;54.600;9.842;2022-11-14T11:51:05;40.63;;;27.08;;
45848;SDS011;31567;54.600;9.842;2022-11-14T11:55:12;35.33;;;24.50;;
45848;SDS011;31567;54.600;9.842;2022-11-14T11:59:02;40.67;;;25.50;;
45848;SDS011;31567;54.600;9.842;2022-11-14T12:02:55;39.17;;;25.75;;
45848;SDS011;31567;54.600;9.842;2022-11-14T12:06:41;39.80;;;26.85;;
45848;SDS011;31567;54.600;9.842;2022-11-14T12:10:38;40.88;;;26.60;;
45848;SDS011;31567;54.600;9.842;2022-11-14T12:30:40;42.33;;;28.10;;
45848;SDS011;31567;54.600;9.842;2022-11-14T12:34:28;42.40;;;26.25;;
45848;SDS011;31567;54.600;9.842;2022-11-14T12:38:14;43.17;;;27.17;;
45848;SDS011;31567;54.600;9.842;2022-11-14T12:42:00;48.07;;;28.90;;
45848;SDS011;31567;54.600;9.842;2022-11-14T12:57:20;43.15;;;28.45;;
45848;SDS011;31567;54.600;9.842;2022-11-14T13:14:00;42.33;;;28.67;;
45848;SDS011;31567;54.600;9.842;2022-11-14T13:18:21;44.10;;;27.50;;
45848;SDS011;31567;54.600;9.842;2022-11-14T13:22:40;44.33;;;28.40;;
45848;SDS011;31567;54.600;9.842;2022-11-14T13:30:03;41.72;;;26.55;;
45848;SDS011;31567;54.600;9.842;2022-11-14T13:33:52;42.03;;;28.08;;
45848;SDS011;31567;54.600;9.842;2022-11-14T13:53:48;39.03;;;26.48;;
45848;SDS011;31567;54.600;9.842;2022-11-14T14:16:35;47.55;;;29.30;;
45848;SDS011;31567;54.600;9.842;2022-11-14T14:20:42;44.38;;;29.85;;
45848;SDS011;31567;54.600;9.842;2022-11-14T14:28:28;48.35;;;29.70;;
45848;SDS011;31567;54.600;9.842;2022-11-14T14:32:24;47.88;;;29.33;;
45848;SDS011;31567;54.600;9.842;2022-11-14T14:36:04;46.30;;;28.98;;
45848;SDS011;31567;54.600;9.842;2022-11-14T14:39:58;52.78;;;30.52;;
45848;SDS011;31567;54.600;9.842;2022-11-14T14:43:39;48.60;;;29.77;;
45848;SDS011;31567;54.600;9.842;2022-11-14T14:47:33;52.42;;;29.67;;
45848;SDS011;31567;54.600;9.842;2022-11-14T14:51:27;53.22;;;29.85;;
45848;SDS011;31567;54.600;9.842;2022-11-14T14:55:19;50.88;;;29.95;;
45848;SDS011;31567;54.600;9.842;2022-11-14T14:59:14;51.20;;;30.20;;
45848;SDS011;31567;54.600;9.842;2022-11-14T15:02:55;54.95;;;31.30;;
45848;SDS011;31567;54.600;9.842;2022-11-14T15:06:36;49.78;;;31.50;;
45848;SDS011;31567;54.600;9.842;2022-11-14T15:10:20;52.95;;;31.25;;
45848;SDS011;31567;54.600;9.842;2022-11-14T15:14:02;51.10;;;30.50;;
45848;SDS011;31567;54.600;9.842;2022-11-14T15:17:42;47.78;;;30.15;;
45848;SDS011;31567;54.600;9.842;2022-11-14T15:21:23;54.13;;;30.33;;
45848;SDS011;31567;54.600;9.842;2022-11-14T15:28:49;52.00;;;31.33;;
45848;SDS011;31567;54.600;9.842;2022-11-14T15:32:29;51.42;;;30.50;;
45848;SDS011;31567;54.600;9.842;2022-11-14T15:36:10;53.05;;;30.23;;
45848;SDS011;31567;54.600;9.842;2022-11-14T15:39:51;52.35;;;32.78;;
45848;SDS011;31567;54.600;9.842;2022-11-14T15:43:50;53.80;;;31.65;;
45848;SDS011;31567;54.600;9.842;2022-11-14T15:47:37;53.38;;;31.15;;
45848;SDS011;31567;54.600;9.842;2022-11-14T15:55:16;53.42;;;30.75;;
45848;SDS011;31567;54.600;9.842;2022-11-14T15:59:00;53.25;;;31.23;;
45848;SDS011;31567;54.600;9.842;2022-11-14T16:02:41;54.78;;;29.92;;
45848;SDS011;31567;54.600;9.842;2022-11-14T16:06:32;57.70;;;31.33;;
45848;SDS011;31567;54.600;9.842;2022-11-14T16:13:52;55.20;;;31.35;;
45848;SDS011;31567;54.600;9.842;2022-11-14T16:17:39;57.85;;;30.48;;
45848;SDS011;31567;54.600;9.842;2022-11-14T16:21:20;55.35;;;31.30;;
45848;SDS011;31567;54.600;9.842;2022-11-14T16:25:00;64.18;;;32.70;;
45848;SDS011;31567;54.600;9.842;2022-11-14T16:28:39;58.38;;;33.55;;
45848;SDS011;31567;54.600;9.842;2022-11-14T16:32:19;51.08;;;29.80;;
45848;SDS011;31567;54.600;9.842;2022-11-14T16:35:58;58.25;;;32.65;;
45848;SDS011;31567;54.600;9.842;2022-11-14T16:39:38;55.72;;;32.45;;
45848;SDS011;31567;54.600;9.842;2022-11-14T16:43:17;62.40;;;33.10;;
45848;SDS011;31567;54.600;9.842;2022-11-14T16:46:57;58.25;;;31.60;;
45848;SDS011;31567;54.600;9.842;2022-11-14T16:50:37;55.17;;;29.92;;
45848;SDS011;31567;54.600;9.842;2022-11-14T16:54:17;54.65;;;31.10;;
45848;SDS011;31567;54.600;9.842;2022-11-14T16:57:58;55.63;;;31.25;;
45848;SDS011;31567;54.600;9.842;2022-11-14T17:01:37;56.90;;;32.38;;
45848;SDS011;31567;54.600;9.842;2022-11-14T17:05:17;51.63;;;29.13;;
45848;SDS011;31567;54.600;9.842;2022-11-14T17:08:57;56.38;;;32.60;;
45848;SDS011;31567;54.600;9.842;2022-11-14T17:12:37;53.03;;;30.00;;
45848;SDS011;31567;54.600;9.842;2022-11-14T17:16:17;58.65;;;31.15;;
45848;SDS011;31567;54.600;9.842;2022-11-14T17:19:56;56.83;;;31.73;;
45848;SDS011;31567;54.600;9.842;2022-11-14T17:23:36;60.00;;;33.05;;
45848;SDS011;31567;54.600;9.842;2022-11-14T17:27:16;59.60;;;32.88;;
45848;SDS011;31567;54.600;9.842;2022-11-14T17:30:55;55.60;;;30.92;;
45848;SDS011;31567;54.600;9.842;2022-11-14T17:34:35;58.50;;;32.28;;
45848;SDS011;31567;54.600;9.842;2022-11-14T17:38:15;60.63;;;32.63;;
45848;SDS011;31567;54.600;9.842;2022-11-14T17:41:54;51.85;;;30.60;;
45848;SDS011;31567;54.600;9.842;2022-11-14T17:45:34;56.70;;;31.65;;
45848;SDS011;31567;54.600;9.842;2022-11-14T17:49:13;56.08;;;31.20;;
45848;SDS011;31567;54.600;9.842;2022-11-14T17:52:53;60.25;;;32.40;;
45848;SDS011;31567;54.600;9.842;2022-11-14T17:56:32;57.75;;;31.63;;
45848;SDS011;31567;54.600;9.842;2022-11-14T18:00:12;55.35;;;32.08;;
45848;SDS011;31567;54.600;9.842;2022-11-14T18:03:52;58.83;;;32.03;;
45848;SDS011;31567;54.600;9.842;2022-11-14T18:07:33;61.13;;;33.45;;
45848;SDS011;31567;54.600;9.842;2022-11-14T18:11:14;53.17;;;31.35;;
45848;SDS011;31567;54.600;9.842;2022-11-14T18:14:54;57.15;;;32.20;;
45848;SDS011;31567;54.600;9.842;2022-11-14T18:18:34;55.80;;;32.75;;
45848;SDS011;31567;54.600;9.842;2022-11-14T18:22:14;56.78;;;31.73;;
45848;SDS011;31567;54.600;9.842;2022-11-14T18:25:54;59.97;;;33.13;;
45848;SDS011;31567;54.600;9.842;2022-11-14T18:29:33;58.05;;;31.65;;
45848;SDS011;31567;54.600;9.842;2022-11-14T18:33:13;63.17;;;34.25;;
45848;SDS011;31567;54.600;9.842;2022-11-14T18:36:52;59.97;;;33.55;;
45848;SDS011;31567;54.600;9.842;2022-11-14T18:40:32;60.78;;;32.63;;
45848;SDS011;31567;54.600;9.842;2022-11-14T18:44:11;61.47;;;33.88;;
45848;SDS011;31567;54.600;9.842;2022-11-14T18:47:51;63.60;;;33.78;;
45848;SDS011;31567;54.600;9.842;2022-11-14T18:51:31;62.72;;;34.30;;
45848;SDS011;31567;54.600;9.842;2022-11-14T18:55:19;64.53;;;32.60;;
45848;SDS011;31567;54.600;9.842;2022-11-14T18:58:59;64.82;;;35.53;;
45848;SDS011;31567;54.600;9.842;2022-11-14T19:02:38;58.90;;;33.00;;
45848;SDS011;31567;54.600;9.842;2022-11-14T19:06:18;62.05;;;33.70;;
45848;SDS011;31567;54.600;9.842;2022-11-14T19:09:57;61.85;;;33.65;;
45848;SDS011;31567;54.600;9.842;2022-11-14T19:13:37;54.83;;;32.85;;
45848;SDS011;31567;54.600;9.842;2022-11-14T19:17:17;56.90;;;32.95;;
45848;SDS011;31567;54.600;9.842;2022-11-14T19:21:01;58.25;;;32.97;;
45848;SDS011;31567;54.600;9.842;2022-11-14T19:24:41;58.55;;;33.10;;
45848;SDS011;31567;54.600;9.842;2022-11-14T19:28:23;57.63;;;32.38;;
45848;SDS011;31567;54.600;9.842;2022-11-14T19:32:03;61.67;;;32.40;;
45848;SDS011;31567;54.600;9.842;2022-11-14T19:35:43;57.20;;;32.78;;
45848;SDS011;31567;54.600;9.842;2022-11-14T19:39:23;54.15;;;31.52;;
45848;SDS011;31567;54.600;9.842;2022-11-14T19:43:02;56.17;;;31.83;;
45848;SDS011;31567;54.600;9.842;2022-11-14T19:46:45;55.65;;;32.35;;
45848;SDS011;31567;54.600;9.842;2022-11-14T19:50:24;55.40;;;32.42;;
45848;SDS011;31567;54.600;9.842;2022-11-14T19:54:04;57.08;;;32.30;;
45848;SDS011;31567;54.600;9.842;2022-11-14T19:57:44;54.90;;;31.27;;
45848;SDS011;31567;54.600;9.842;2022-11-14T20:01:24;58.78;;;32.55;;
45848;SDS011;31567;54.600;9.842;2022-11-14T20:05:06;54.00;;;32.30;;
45848;SDS011;31567;54.600;9.842;2022-11-14T20:08:46;58.33;;;33.75;;
45848;SDS011;31567;54.600;9.842;2022-11-14T20:12:25;56.05;;;32.13;;
45848;SDS011;31567;54.600;9.842;2022-11-14T20:16:08;54.08;;;32.55;;
45848;SDS011;31567;54.600;9.842;2022-11-14T20:19:49;56.28;;;32.85;;
45848;SDS011;31567;54.600;9.842;2022-11-14T20:23:29;53.83;;;32.55;;
45848;SDS011;31567;54.600;9.842;2022-11-14T20:27:09;53.10;;;31.55;;
45848;SDS011;31567;54.600;9.842;2022-11-14T20:30:48;61.33;;;34.35;;
45848;SDS011;31567;54.600;9.842;2022-11-14T20:34:28;51.10;;;31.02;;
45848;SDS011;31567;54.600;9.842;2022-11-14T20:38:10;55.60;;;32.25;;
45848;SDS011;31567;54.600;9.842;2022-11-14T20:41:50;55.20;;;32.53;;
45848;SDS011;31567;54.600;9.842;2022-11-14T20:45:30;56.20;;;32.95;;
45848;SDS011;31567;54.600;9.842;2022-11-14T20:49:09;53.00;;;32.97;;
45848;SDS011;31567;54.600;9.842;2022-11-14T20:52:49;53.53;;;31.52;;
45848;SDS011;31567;54.600;9.842;2022-11-14T20:56:28;54.70;;;33.45;;
45848;SDS011;31567;54.600;9.842;2022-11-14T21:00:08;60.25;;;32.40;;
45848;SDS011;31567;54.600;9.842;2022-11-14T21:03:48;54.95;;;31.90;;
45848;SDS011;31567;54.600;9.842;2022-11-14T21:07:28;52.78;;;31.65;;
45848;SDS011;31567;54.600;9.842;2022-11-14T21:11:10;54.60;;;32.90;;
45848;SDS011;31567;54.600;9.842;2022-11-14T21:14:51;51.20;;;32.03;;
45848;SDS011;31567;54.600;9.842;2022-11-14T21:18:31;50.30;;;32.53;;
45848;SDS011;31567;54.600;9.842;2022-11-14T21:22:10;55.83;;;32.10;;
45848;SDS011;31567;54.600;9.842;2022-11-14T21:25:51;56.65;;;33.40;;
45848;SDS011;31567;54.600;9.842;2022-11-14T21:29:30;58.67;;;33.70;;
45848;SDS011;31567;54.600;9.842;2022-11-14T21:33:10;50.92;;;31.25;;
45848;SDS011;31567;54.600;9.842;2022-11-14T21:36:49;53.22;;;31.98;;
45848;SDS011;31567;54.600;9.842;2022-11-14T21:40:29;53.88;;;32.40;;
45848;SDS011;31567;54.600;9.842;2022-11-14T21:44:09;56.00;;;32.85;;
45848;SDS011;31567;54.600;9.842;2022-11-14T21:47:51;55.00;;;32.35;;
45848;SDS011;31567;54.600;9.842;2022-11-14T21:51:30;51.60;;;31.05;;
45848;SDS011;31567;54.600;9.842;2022-11-14T21:55:10;55.60;;;31.35;;
45848;SDS011;31567;54.600;9.842;2022-11-14T21:58:50;51.17;;;31.70;;
45848;SDS011;31567;54.600;9.842;2022-11-14T22:02:49;54.35;;;31.90;;
45848;SDS011;31567;54.600;9.842;2022-11-14T22:06:48;52.70;;;31.75;;
45848;SDS011;31567;54.600;9.842;2022-11-14T22:10:27;50.35;;;31.38;;
45848;SDS011;31567;54.600;9.842;2022-11-14T22:14:08;52.38;;;30.92;;
45848;SDS011;31567;54.600;9.842;2022-11-14T22:17:47;52.17;;;31.95;;
45848;SDS011;31567;54.600;9.842;2022-11-14T22:21:27;51.70;;;31.13;;
45848;SDS011;31567;54.600;9.842;2022-11-14T22:25:07;49.42;;;32.63;;
45848;SDS011;31567;54.600;9.842;2022-11-14T22:28:47;52.97;;;32.95;;
45848;SDS011;31567;54.600;9.842;2022-11-14T22:32:26;54.80;;;33.22;;
45848;SDS011;31567;54.600;9.842;2022-11-14T22:36:13;54.05;;;33.15;;
45848;SDS011;31567;54.600;9.842;2022-11-14T22:39:56;51.60;;;31.73;;
45848;SDS011;31567;54.600;9.842;2022-11-14T22:43:36;57.75;;;33.25;;
45848;SDS011;31567;54.600;9.842;2022-11-14T22:47:16;56.83;;;33.58;;
45848;SDS011;31567;54.600;9.842;2022-11-14T22:50:56;55.70;;;33.75;;
45848;SDS011;31567;54.600;9.842;2022-11-14T22:54:36;55.25;;;32.38;;
45848;SDS011;31567;54.600;9.842;2022-11-14T22:58:15;54.47;;;33.55;;
45848;SDS011;31567;54.600;9.842;2022-11-14T23:01:55;53.63;;;33.47;;
45848;SDS011;31567;54.600;9.842;2022-11-14T23:05:35;56.85;;;34.17;;
45848;SDS011;31567;54.600;9.842;2022-11-14T23:09:15;57.65;;;33.90;;
45848;SDS011;31567;54.600;9.842;2022-11-14T23:12:55;53.83;;;33.35;;
45848;SDS011;31567;54.600;9.842;2022-11-14T23:16:34;51.65;;;32.22;;
45848;SDS011;31567;54.600;9.842;2022-11-14T23:20:14;55.42;;;32.72;;
45848;SDS011;31567;54.600;9.842;2022-11-14T23:23:58;57.22;;;33.47;;
45848;SDS011;31567;54.600;9.842;2022-11-14T23:27:39;55.70;;;34.17;;
45848;SDS011;31567;54.600;9.842;2022-11-14T23:31:19;54.58;;;33.40;;
45848;SDS011;31567;54.600;9.842;2022-11-14T23:34:59;54.50;;;33.72;;
45848;SDS011;31567;54.600;9.842;2022-11-14T23:38:38;50.10;;;30.45;;
45848;SDS011;31567;54.600;9.842;2022-11-14T23:42:18;53.67;;;31.90;;
45848;SDS011;31567;54.600;9.842;2022-11-14T23:45:58;54.60;;;32.67;;